sensor_id;sensor_type;location;lat;lon;timestamp;pressure;altitude;pressure_sealevel;temperature;humidity
61488;BME280;47351;53.326;-6.298;2023-04-26T00:02:46;101510.19;;;7.78;62.17
61488;BME280;47351;53.326;-6.298;2023-04-26T00:05:48;101509.40;;;7.75;62.20
61488;BME280;47351;53.326;-6.298;2023-04-26T00:08:39;101513.08;;;7.71;62.30
61488;BME280;47351;53.326;-6.298;2023-04-26T00:11:41;101513.90;;;7.67;62.38
61488;BME280;47351;53.326;-6.298;2023-04-26T00:14:32;101514.98;;;7.65;62.50
61488;BME280;47351;53.326;-6.298;2023-04-26T00:17:23;101517.30;;;7.62;62.61
61488;BME280;47351;53.326;-6.298;2023-04-26T00:20:14;101513.48;;;7.61;62.78
61488;BME280;47351;53.326;-6.298;2023-04-26T00:23:24;101516.41;;;7.60;62.91
61488;BME280;47351;53.326;-6.298;2023-04-26T00:26:17;101516.75;;;7.60;63.20
61488;BME280;47351;53.326;-6.298;2023-04-26T00:29:27;101517.60;;;7.61;63.46
61488;BME280;47351;53.326;-6.298;2023-04-26T00:32:38;101511.81;;;7.62;63.52
61488;BME280;47351;53.326;-6.298;2023-04-26T00:35:36;101508.95;;;7.62;63.43
61488;BME280;47351;53.326;-6.298;2023-04-26T00:38:29;101508.77;;;7.62;63.31
61488;BME280;47351;53.326;-6.298;2023-04-26T00:41:23;101509.31;;;7.62;63.39
61488;BME280;47351;53.326;-6.298;2023-04-26T00:44:34;101507.52;;;7.62;63.45
61488;BME280;47351;53.326;-6.298;2023-04-26T00:47:30;101503.02;;;7.61;63.42
61488;BME280;47351;53.326;-6.298;2023-04-26T00:50:21;101496.42;;;7.59;63.47
61488;BME280;47351;53.326;-6.298;2023-04-26T00:53:24;101493.77;;;7.57;63.56
61488;BME280;47351;53.326;-6.298;2023-04-26T00:56:15;101488.11;;;7.54;63.73
61488;BME280;47351;53.326;-6.298;2023-04-26T00:59:26;101486.78;;;7.53;63.95
61488;BME280;47351;53.326;-6.298;2023-04-26T01:02:16;101480.84;;;7.52;63.97
61488;BME280;47351;53.326;-6.298;2023-04-26T01:05:17;101476.43;;;7.51;64.09
61488;BME280;47351;53.326;-6.298;2023-04-26T01:08:13;101474.56;;;7.50;64.19
61488;BME280;47351;53.326;-6.298;2023-04-26T01:11:11;101468.23;;;7.49;64.36
61488;BME280;47351;53.326;-6.298;2023-04-26T01:14:11;101461.79;;;7.50;64.52
61488;BME280;47351;53.326;-6.298;2023-04-26T01:17:03;101461.77;;;7.50;64.57
61488;BME280;47351;53.326;-6.298;2023-04-26T01:19:54;101460.38;;;7.50;64.71
61488;BME280;47351;53.326;-6.298;2023-04-26T01:23:05;101460.58;;;7.50;64.80
61488;BME280;47351;53.326;-6.298;2023-04-26T01:25:56;101459.84;;;7.50;64.98
61488;BME280;47351;53.326;-6.298;2023-04-26T01:28:48;101458.20;;;7.50;65.06
61488;BME280;47351;53.326;-6.298;2023-04-26T01:31:47;101454.95;;;7.51;65.21
61488;BME280;47351;53.326;-6.298;2023-04-26T01:34:37;101453.13;;;7.52;65.19
61488;BME280;47351;53.326;-6.298;2023-04-26T01:37:27;101446.70;;;7.52;65.36
61488;BME280;47351;53.326;-6.298;2023-04-26T01:40:27;101445.77;;;7.53;65.48
61488;BME280;47351;53.326;-6.298;2023-04-26T01:43:17;101442.85;;;7.54;65.61
61488;BME280;47351;53.326;-6.298;2023-04-26T01:46:09;101439.95;;;7.54;65.66
61488;BME280;47351;53.326;-6.298;2023-04-26T01:49:00;101439.39;;;7.55;65.75
61488;BME280;47351;53.326;-6.298;2023-04-26T01:51:54;101432.10;;;7.55;65.83
61488;BME280;47351;53.326;-6.298;2023-04-26T01:54:45;101428.96;;;7.54;65.74
61488;BME280;47351;53.326;-6.298;2023-04-26T01:57:35;101424.77;;;7.53;65.76
61488;BME280;47351;53.326;-6.298;2023-04-26T02:00:27;101422.00;;;7.52;65.90
61488;BME280;47351;53.326;-6.298;2023-04-26T02:03:18;101423.29;;;7.52;66.02
61488;BME280;47351;53.326;-6.298;2023-04-26T02:06:29;101424.01;;;7.51;66.15
61488;BME280;47351;53.326;-6.298;2023-04-26T02:09:34;101426.65;;;7.54;66.18
61488;BME280;47351;53.326;-6.298;2023-04-26T02:12:29;101425.13;;;7.58;66.32
61488;BME280;47351;53.326;-6.298;2023-04-26T02:15:20;101421.44;;;7.61;66.47
61488;BME280;47351;53.326;-6.298;2023-04-26T02:18:13;101418.77;;;7.66;66.60
61488;BME280;47351;53.326;-6.298;2023-04-26T02:21:07;101416.01;;;7.74;66.83
61488;BME280;47351;53.326;-6.298;2023-04-26T02:24:18;101412.39;;;7.81;66.76
61488;BME280;47351;53.326;-6.298;2023-04-26T02:27:14;101405.80;;;7.88;66.57
61488;BME280;47351;53.326;-6.298;2023-04-26T02:30:25;101406.84;;;7.93;66.30
61488;BME280;47351;53.326;-6.298;2023-04-26T02:33:27;101404.19;;;7.95;66.26
61488;BME280;47351;53.326;-6.298;2023-04-26T02:36:27;101402.28;;;7.97;66.32
61488;BME280;47351;53.326;-6.298;2023-04-26T02:39:20;101401.27;;;7.98;66.36
61488;BME280;47351;53.326;-6.298;2023-04-26T02:42:11;101400.21;;;7.98;66.17
61488;BME280;47351;53.326;-6.298;2023-04-26T02:45:05;101392.71;;;7.97;66.21
61488;BME280;47351;53.326;-6.298;2023-04-26T02:47:58;101390.53;;;7.95;66.24
61488;BME280;47351;53.326;-6.298;2023-04-26T02:50:49;101389.22;;;7.93;66.31
61488;BME280;47351;53.326;-6.298;2023-04-26T02:53:39;101384.50;;;7.93;66.46
61488;BME280;47351;53.326;-6.298;2023-04-26T02:56:33;101383.20;;;7.91;66.47
61488;BME280;47351;53.326;-6.298;2023-04-26T02:59:25;101375.52;;;7.89;66.58
61488;BME280;47351;53.326;-6.298;2023-04-26T03:02:36;101372.16;;;7.86;66.52
61488;BME280;47351;53.326;-6.298;2023-04-26T03:05:30;101365.23;;;7.82;66.49
61488;BME280;47351;53.326;-6.298;2023-04-26T03:08:39;101366.20;;;7.79;66.50
61488;BME280;47351;53.326;-6.298;2023-04-26T03:11:40;101367.91;;;7.76;66.46
61488;BME280;47351;53.326;-6.298;2023-04-26T03:14:30;101368.47;;;7.73;66.45
61488;BME280;47351;53.326;-6.298;2023-04-26T03:17:23;101370.48;;;7.72;66.72
61488;BME280;47351;53.326;-6.298;2023-04-26T03:20:25;101370.38;;;7.71;66.94
61488;BME280;47351;53.326;-6.298;2023-04-26T03:23:21;101368.89;;;7.70;67.03
61488;BME280;47351;53.326;-6.298;2023-04-26T03:26:13;101367.70;;;7.69;67.12
61488;BME280;47351;53.326;-6.298;2023-04-26T03:29:04;101362.58;;;7.69;67.27
61488;BME280;47351;53.326;-6.298;2023-04-26T03:31:57;101362.60;;;7.69;67.26
61488;BME280;47351;53.326;-6.298;2023-04-26T03:34:47;101362.89;;;7.67;67.34
61488;BME280;47351;53.326;-6.298;2023-04-26T03:37:43;101362.11;;;7.66;67.35
61488;BME280;47351;53.326;-6.298;2023-04-26T03:40:34;101362.33;;;7.65;67.53
61488;BME280;47351;53.326;-6.298;2023-04-26T03:43:24;101362.36;;;7.65;67.59
61488;BME280;47351;53.326;-6.298;2023-04-26T03:46:28;101357.66;;;7.64;67.75
61488;BME280;47351;53.326;-6.298;2023-04-26T03:49:19;101357.66;;;7.64;67.84
61488;BME280;47351;53.326;-6.298;2023-04-26T03:52:30;101352.25;;;7.62;67.81
61488;BME280;47351;53.326;-6.298;2023-04-26T03:55:23;101350.39;;;7.61;67.96
61488;BME280;47351;53.326;-6.298;2023-04-26T03:58:25;101349.94;;;7.60;68.15
61488;BME280;47351;53.326;-6.298;2023-04-26T04:01:36;101348.41;;;7.60;68.13
61488;BME280;47351;53.326;-6.298;2023-04-26T04:04:46;101346.01;;;7.58;68.12
61488;BME280;47351;53.326;-6.298;2023-04-26T04:07:40;101336.39;;;7.56;68.17
61488;BME280;47351;53.326;-6.298;2023-04-26T04:10:45;101332.30;;;7.54;68.24
61488;BME280;47351;53.326;-6.298;2023-04-26T04:13:35;101332.28;;;7.53;68.17
61488;BME280;47351;53.326;-6.298;2023-04-26T04:16:25;101329.05;;;7.51;68.25
61488;BME280;47351;53.326;-6.298;2023-04-26T04:19:16;101325.05;;;7.50;68.06
61488;BME280;47351;53.326;-6.298;2023-04-26T04:22:10;101324.27;;;7.48;67.97
61488;BME280;47351;53.326;-6.298;2023-04-26T04:25:03;101321.08;;;7.46;67.97
61488;BME280;47351;53.326;-6.298;2023-04-26T04:28:14;101320.98;;;7.45;68.01
61488;BME280;47351;53.326;-6.298;2023-04-26T04:31:05;101321.95;;;7.44;68.00
61488;BME280;47351;53.326;-6.298;2023-04-26T04:34:17;101323.45;;;7.43;68.06
61488;BME280;47351;53.326;-6.298;2023-04-26T04:37:08;101320.86;;;7.42;68.02
61488;BME280;47351;53.326;-6.298;2023-04-26T04:39:59;101322.17;;;7.41;68.11
61488;BME280;47351;53.326;-6.298;2023-04-26T04:42:55;101324.87;;;7.40;68.16
61488;BME280;47351;53.326;-6.298;2023-04-26T04:45:50;101325.32;;;7.39;68.18
61488;BME280;47351;53.326;-6.298;2023-04-26T04:48:54;101325.93;;;7.38;68.09
61488;BME280;47351;53.326;-6.298;2023-04-26T04:51:45;101327.75;;;7.38;68.26
61488;BME280;47351;53.326;-6.298;2023-04-26T04:54:35;101324.87;;;7.38;68.50
61488;BME280;47351;53.326;-6.298;2023-04-26T04:57:34;101326.10;;;7.39;68.61
61488;BME280;47351;53.326;-6.298;2023-04-26T05:00:36;101323.84;;;7.38;68.71
61488;BME280;47351;53.326;-6.298;2023-04-26T05:03:39;101321.77;;;7.37;68.84
61488;BME280;47351;53.326;-6.298;2023-04-26T05:06:44;101320.99;;;7.36;68.88
61488;BME280;47351;53.326;-6.298;2023-04-26T05:09:55;101319.61;;;7.35;69.02
61488;BME280;47351;53.326;-6.298;2023-04-26T05:12:58;101320.20;;;7.36;69.15
61488;BME280;47351;53.326;-6.298;2023-04-26T05:15:59;101324.27;;;7.39;69.24
61488;BME280;47351;53.326;-6.298;2023-04-26T05:18:52;101323.13;;;7.42;69.12
61488;BME280;47351;53.326;-6.298;2023-04-26T05:22:05;101323.99;;;7.49;69.33
61488;BME280;47351;53.326;-6.298;2023-04-26T05:25:01;101323.77;;;7.57;69.27
61488;BME280;47351;53.326;-6.298;2023-04-26T05:28:16;101322.82;;;7.66;69.47
61488;BME280;47351;53.326;-6.298;2023-04-26T05:31:45;101324.88;;;7.76;69.06
61488;BME280;47351;53.326;-6.298;2023-04-26T05:35:03;101326.11;;;7.82;68.54
61488;BME280;47351;53.326;-6.298;2023-04-26T05:48:43;101329.39;;;8.03;67.72
61488;BME280;47351;53.326;-6.298;2023-04-26T05:52:02;101330.52;;;8.09;67.72
61488;BME280;47351;53.326;-6.298;2023-04-26T05:55:01;101333.14;;;8.16;67.71
61488;BME280;47351;53.326;-6.298;2023-04-26T05:58:02;101336.11;;;8.21;67.67
61488;BME280;47351;53.326;-6.298;2023-04-26T06:00:54;101338.87;;;8.24;67.61
61488;BME280;47351;53.326;-6.298;2023-04-26T06:03:45;101335.13;;;8.26;67.53
61488;BME280;47351;53.326;-6.298;2023-04-26T06:06:41;101328.39;;;8.30;67.49
61488;BME280;47351;53.326;-6.298;2023-04-26T06:09:32;101326.10;;;8.34;67.33
61488;BME280;47351;53.326;-6.298;2023-04-26T06:12:23;101323.88;;;8.38;67.28
61488;BME280;47351;53.326;-6.298;2023-04-26T06:15:13;101319.79;;;8.42;67.14
61488;BME280;47351;53.326;-6.298;2023-04-26T06:18:04;101317.99;;;8.47;66.84
61488;BME280;47351;53.326;-6.298;2023-04-26T06:20:55;101317.90;;;8.50;66.78
61488;BME280;47351;53.326;-6.298;2023-04-26T06:23:46;101318.91;;;8.50;66.69
61488;BME280;47351;53.326;-6.298;2023-04-26T06:26:39;101326.20;;;8.48;66.55
61488;BME280;47351;53.326;-6.298;2023-04-26T06:29:31;101329.70;;;8.45;66.74
61488;BME280;47351;53.326;-6.298;2023-04-26T06:32:21;101329.41;;;8.42;66.86
61488;BME280;47351;53.326;-6.298;2023-04-26T06:35:12;101332.52;;;8.39;66.97
61488;BME280;47351;53.326;-6.298;2023-04-26T06:38:03;101338.67;;;8.37;67.01
61488;BME280;47351;53.326;-6.298;2023-04-26T06:40:54;101341.81;;;8.40;67.05
61488;BME280;47351;53.326;-6.298;2023-04-26T06:43:44;101339.19;;;8.48;67.03
61488;BME280;47351;53.326;-6.298;2023-04-26T06:46:40;101340.14;;;8.62;67.01
61488;BME280;47351;53.326;-6.298;2023-04-26T06:49:35;101341.20;;;8.81;66.90
61488;BME280;47351;53.326;-6.298;2023-04-26T06:52:25;101337.21;;;9.02;66.45
61488;BME280;47351;53.326;-6.298;2023-04-26T06:55:17;101338.99;;;9.27;66.27
61488;BME280;47351;53.326;-6.298;2023-04-26T06:58:08;101339.20;;;9.55;66.07
61488;BME280;47351;53.326;-6.298;2023-04-26T07:01:01;101334.86;;;9.76;65.77
61488;BME280;47351;53.326;-6.298;2023-04-26T07:03:51;101336.60;;;9.96;65.33
61488;BME280;47351;53.326;-6.298;2023-04-26T07:06:41;101339.72;;;10.11;64.45
61488;BME280;47351;53.326;-6.298;2023-04-26T07:09:32;101338.71;;;10.22;64.15
61488;BME280;47351;53.326;-6.298;2023-04-26T07:12:22;101342.91;;;10.33;63.72
61488;BME280;47351;53.326;-6.298;2023-04-26T07:15:13;101343.55;;;10.47;63.17
61488;BME280;47351;53.326;-6.298;2023-04-26T07:18:03;101341.59;;;10.66;62.94
61488;BME280;47351;53.326;-6.298;2023-04-26T07:20:54;101337.08;;;10.92;62.65
61488;BME280;47351;53.326;-6.298;2023-04-26T07:23:46;101331.75;;;11.18;61.52
61488;BME280;47351;53.326;-6.298;2023-04-26T07:26:37;101328.94;;;11.63;60.71
61488;BME280;47351;53.326;-6.298;2023-04-26T07:29:27;101325.56;;;12.39;59.78
61488;BME280;47351;53.326;-6.298;2023-04-26T07:32:18;101316.04;;;13.18;58.61
61488;BME280;47351;53.326;-6.298;2023-04-26T07:35:09;101310.38;;;14.00;57.58
61488;BME280;47351;53.326;-6.298;2023-04-26T07:38:04;101308.06;;;14.75;56.13
61488;BME280;47351;53.326;-6.298;2023-04-26T07:40:54;101303.64;;;15.51;54.97
61488;BME280;47351;53.326;-6.298;2023-04-26T07:43:45;101306.27;;;16.40;53.36
61488;BME280;47351;53.326;-6.298;2023-04-26T07:46:35;101309.55;;;16.53;52.36
61488;BME280;47351;53.326;-6.298;2023-04-26T07:49:26;101305.77;;;16.37;50.41
61488;BME280;47351;53.326;-6.298;2023-04-26T07:52:16;101304.20;;;16.08;49.51
61488;BME280;47351;53.326;-6.298;2023-04-26T07:55:07;101305.70;;;15.82;48.98
61488;BME280;47351;53.326;-6.298;2023-04-26T07:57:57;101300.70;;;15.66;49.50
61488;BME280;47351;53.326;-6.298;2023-04-26T08:00:48;101301.00;;;15.47;49.54
61488;BME280;47351;53.326;-6.298;2023-04-26T08:03:38;101297.56;;;15.30;49.64
61488;BME280;47351;53.326;-6.298;2023-04-26T08:06:29;101303.52;;;15.22;49.51
61488;BME280;47351;53.326;-6.298;2023-04-26T08:09:19;101307.11;;;15.21;49.48
61488;BME280;47351;53.326;-6.298;2023-04-26T08:12:09;101307.28;;;15.27;49.08
61488;BME280;47351;53.326;-6.298;2023-04-26T08:15:00;101306.77;;;15.20;48.22
61488;BME280;47351;53.326;-6.298;2023-04-26T08:17:51;101303.79;;;15.12;48.19
61488;BME280;47351;53.326;-6.298;2023-04-26T08:20:41;101309.81;;;15.06;47.60
61488;BME280;47351;53.326;-6.298;2023-04-26T08:23:33;101311.40;;;15.03;47.71
61488;BME280;47351;53.326;-6.298;2023-04-26T08:26:24;101317.08;;;14.98;47.51
61488;BME280;47351;53.326;-6.298;2023-04-26T08:29:14;101317.30;;;14.91;47.12
61488;BME280;47351;53.326;-6.298;2023-04-26T08:32:06;101311.75;;;14.82;46.98
61488;BME280;47351;53.326;-6.298;2023-04-26T08:34:56;101318.05;;;14.74;46.36
61488;BME280;47351;53.326;-6.298;2023-04-26T08:37:47;101314.51;;;14.66;46.33
61488;BME280;47351;53.326;-6.298;2023-04-26T08:40:37;101315.02;;;14.65;46.51
61488;BME280;47351;53.326;-6.298;2023-04-26T08:43:28;101316.86;;;14.69;46.44
61488;BME280;47351;53.326;-6.298;2023-04-26T08:46:19;101315.09;;;14.81;45.91
61488;BME280;47351;53.326;-6.298;2023-04-26T08:49:12;101308.65;;;15.10;46.05
61488;BME280;47351;53.326;-6.298;2023-04-26T08:52:05;101304.77;;;15.59;45.83
61488;BME280;47351;53.326;-6.298;2023-04-26T08:54:58;101302.50;;;15.75;43.69
61488;BME280;47351;53.326;-6.298;2023-04-26T08:57:49;101306.86;;;15.73;43.34
61488;BME280;47351;53.326;-6.298;2023-04-26T09:00:40;101308.83;;;15.73;43.36
61488;BME280;47351;53.326;-6.298;2023-04-26T09:03:31;101309.23;;;15.98;43.36
61488;BME280;47351;53.326;-6.298;2023-04-26T09:06:22;101305.96;;;17.04;41.94
61488;BME280;47351;53.326;-6.298;2023-04-26T09:09:15;101296.77;;;18.04;40.10
61488;BME280;47351;53.326;-6.298;2023-04-26T09:12:07;101299.58;;;18.75;38.80
61488;BME280;47351;53.326;-6.298;2023-04-26T09:14:57;101293.77;;;19.51;38.80
61488;BME280;47351;53.326;-6.298;2023-04-26T09:17:49;101287.80;;;20.09;37.72
61488;BME280;47351;53.326;-6.298;2023-04-26T09:20:40;101285.66;;;20.68;37.02
61488;BME280;47351;53.326;-6.298;2023-04-26T09:23:30;101281.59;;;21.45;36.03
61488;BME280;47351;53.326;-6.298;2023-04-26T09:26:21;101281.23;;;21.77;35.13
61488;BME280;47351;53.326;-6.298;2023-04-26T09:29:11;101288.08;;;22.26;34.77
61488;BME280;47351;53.326;-6.298;2023-04-26T09:32:02;101285.10;;;22.89;33.83
61488;BME280;47351;53.326;-6.298;2023-04-26T09:34:52;101284.05;;;23.14;32.30
61488;BME280;47351;53.326;-6.298;2023-04-26T09:37:44;101293.43;;;23.20;32.82
61488;BME280;47351;53.326;-6.298;2023-04-26T09:40:48;101289.80;;;23.59;33.43
61488;BME280;47351;53.326;-6.298;2023-04-26T09:43:39;101287.50;;;23.96;33.13
61488;BME280;47351;53.326;-6.298;2023-04-26T09:46:35;101288.96;;;24.01;32.37
61488;BME280;47351;53.326;-6.298;2023-04-26T09:49:26;101292.81;;;23.64;31.51
61488;BME280;47351;53.326;-6.298;2023-04-26T09:52:16;101294.89;;;23.40;32.33
61488;BME280;47351;53.326;-6.298;2023-04-26T09:55:07;101291.48;;;23.22;32.47
61488;BME280;47351;53.326;-6.298;2023-04-26T09:58:09;101287.98;;;22.77;32.54
61488;BME280;47351;53.326;-6.298;2023-04-26T10:01:00;101290.67;;;22.13;32.76
61488;BME280;47351;53.326;-6.298;2023-04-26T10:03:52;101294.00;;;21.75;33.38
61488;BME280;47351;53.326;-6.298;2023-04-26T10:06:44;101293.50;;;21.33;33.62
61488;BME280;47351;53.326;-6.298;2023-04-26T10:09:35;101301.81;;;20.85;33.42
61488;BME280;47351;53.326;-6.298;2023-04-26T10:12:25;101299.36;;;20.71;33.34
61488;BME280;47351;53.326;-6.298;2023-04-26T10:15:16;101294.73;;;20.89;32.60
61488;BME280;47351;53.326;-6.298;2023-04-26T10:18:07;101290.81;;;21.05;32.73
61488;BME280;47351;53.326;-6.298;2023-04-26T10:21:11;101280.73;;;21.14;33.04
61488;BME280;47351;53.326;-6.298;2023-04-26T10:24:03;101285.10;;;20.81;33.56
61488;BME280;47351;53.326;-6.298;2023-04-26T10:26:54;101280.58;;;20.90;33.12
61488;BME280;47351;53.326;-6.298;2023-04-26T10:36:07;101269.57;;;22.90;32.75
61488;BME280;47351;53.326;-6.298;2023-04-26T10:42:18;101267.23;;;26.10;28.86
61488;BME280;47351;53.326;-6.298;2023-04-26T10:45:25;101269.40;;;27.23;27.48
61488;BME280;47351;53.326;-6.298;2023-04-26T10:48:17;101261.36;;;28.08;27.09
61488;BME280;47351;53.326;-6.298;2023-04-26T10:51:08;101256.08;;;29.20;26.13
61488;BME280;47351;53.326;-6.298;2023-04-26T10:54:00;101253.35;;;30.23;25.17
61488;BME280;47351;53.326;-6.298;2023-04-26T10:56:51;101250.77;;;30.89;24.34
61488;BME280;47351;53.326;-6.298;2023-04-26T11:03:08;101251.94;;;31.45;23.39
61488;BME280;47351;53.326;-6.298;2023-04-26T11:06:04;101245.82;;;31.25;21.56
61488;BME280;47351;53.326;-6.298;2023-04-26T11:08:55;101243.41;;;31.41;21.63
61488;BME280;47351;53.326;-6.298;2023-04-26T11:11:51;101241.52;;;32.11;21.42
61488;BME280;47351;53.326;-6.298;2023-04-26T11:14:43;101236.81;;;33.27;21.55
61488;BME280;47351;53.326;-6.298;2023-04-26T11:17:36;101236.36;;;32.91;20.81
61488;BME280;47351;53.326;-6.298;2023-04-26T11:20:30;101243.87;;;31.59;20.53
61488;BME280;47351;53.326;-6.298;2023-04-26T11:23:21;101239.70;;;31.80;20.23
61488;BME280;47351;53.326;-6.298;2023-04-26T11:26:11;101234.61;;;32.43;19.61
61488;BME280;47351;53.326;-6.298;2023-04-26T11:29:02;101235.14;;;32.52;19.49
61488;BME280;47351;53.326;-6.298;2023-04-26T11:31:53;101245.55;;;33.34;19.17
61488;BME280;47351;53.326;-6.298;2023-04-26T11:34:44;101244.42;;;33.95;18.78
61488;BME280;47351;53.326;-6.298;2023-04-26T11:37:38;101245.07;;;34.30;18.46
61488;BME280;47351;53.326;-6.298;2023-04-26T11:40:29;101246.89;;;34.53;17.70
61488;BME280;47351;53.326;-6.298;2023-04-26T11:43:19;101247.66;;;34.94;17.89
61488;BME280;47351;53.326;-6.298;2023-04-26T11:46:10;101247.42;;;35.33;17.81
61488;BME280;47351;53.326;-6.298;2023-04-26T11:49:00;101249.61;;;35.37;17.12
61488;BME280;47351;53.326;-6.298;2023-04-26T11:51:51;101250.70;;;32.97;17.48
61488;BME280;47351;53.326;-6.298;2023-04-26T11:54:41;101255.86;;;32.20;19.13
61488;BME280;47351;53.326;-6.298;2023-04-26T11:57:32;101259.29;;;32.36;19.42
61488;BME280;47351;53.326;-6.298;2023-04-26T12:00:23;101260.44;;;32.09;19.58
61488;BME280;47351;53.326;-6.298;2023-04-26T12:03:14;101265.34;;;31.91;19.38
61488;BME280;47351;53.326;-6.298;2023-04-26T12:06:05;101268.17;;;31.21;19.44
61488;BME280;47351;53.326;-6.298;2023-04-26T12:08:55;101268.67;;;29.24;20.51
61488;BME280;47351;53.326;-6.298;2023-04-26T12:11:52;101268.23;;;29.00;21.22
61488;BME280;47351;53.326;-6.298;2023-04-26T12:14:42;101267.91;;;29.98;20.32
61488;BME280;47351;53.326;-6.298;2023-04-26T12:17:33;101269.16;;;29.35;20.44
61488;BME280;47351;53.326;-6.298;2023-04-26T12:20:27;101263.11;;;29.54;20.04
61488;BME280;47351;53.326;-6.298;2023-04-26T12:23:18;101265.23;;;30.95;19.22
61488;BME280;47351;53.326;-6.298;2023-04-26T12:26:11;101265.38;;;32.12;17.64
61488;BME280;47351;53.326;-6.298;2023-04-26T12:29:01;101266.33;;;31.80;17.27
61488;BME280;47351;53.326;-6.298;2023-04-26T12:31:52;101265.00;;;30.86;17.79
61488;BME280;47351;53.326;-6.298;2023-04-26T12:34:42;101261.34;;;29.55;18.38
61488;BME280;47351;53.326;-6.298;2023-04-26T12:37:32;101262.39;;;28.90;18.01
61488;BME280;47351;53.326;-6.298;2023-04-26T12:40:24;101271.77;;;27.59;19.20
61488;BME280;47351;53.326;-6.298;2023-04-26T12:43:14;101272.38;;;26.49;20.32
61488;BME280;47351;53.326;-6.298;2023-04-26T12:46:05;101266.87;;;25.99;21.09
61488;BME280;47351;53.326;-6.298;2023-04-26T12:48:56;101265.37;;;25.91;21.79
61488;BME280;47351;53.326;-6.298;2023-04-26T12:51:46;101263.57;;;26.00;22.17
61488;BME280;47351;53.326;-6.298;2023-04-26T12:54:36;101262.49;;;24.96;23.24
61488;BME280;47351;53.326;-6.298;2023-04-26T12:57:27;101265.90;;;23.65;24.27
61488;BME280;47351;53.326;-6.298;2023-04-26T13:00:18;101270.41;;;22.68;25.26
61488;BME280;47351;53.326;-6.298;2023-04-26T13:03:09;101280.29;;;21.50;26.21
61488;BME280;47351;53.326;-6.298;2023-04-26T13:06:03;101283.65;;;20.48;27.09
61488;BME280;47351;53.326;-6.298;2023-04-26T13:08:53;101282.71;;;19.70;28.36
61488;BME280;47351;53.326;-6.298;2023-04-26T13:11:44;101283.75;;;19.11;29.23
61488;BME280;47351;53.326;-6.298;2023-04-26T13:14:34;101288.54;;;18.76;29.49
61488;BME280;47351;53.326;-6.298;2023-04-26T13:17:26;101284.66;;;18.81;29.28
61488;BME280;47351;53.326;-6.298;2023-04-26T13:20:17;101277.98;;;18.96;29.77
61488;BME280;47351;53.326;-6.298;2023-04-26T13:23:07;101278.75;;;20.09;29.24
61488;BME280;47351;53.326;-6.298;2023-04-26T13:25:58;101263.13;;;20.60;28.00
61488;BME280;47351;53.326;-6.298;2023-04-26T13:28:49;101272.27;;;20.81;27.73
61488;BME280;47351;53.326;-6.298;2023-04-26T13:31:39;101266.07;;;21.02;27.17
61488;BME280;47351;53.326;-6.298;2023-04-26T13:34:29;101270.98;;;20.70;27.19
61488;BME280;47351;53.326;-6.298;2023-04-26T13:37:20;101268.39;;;20.47;27.41
61488;BME280;47351;53.326;-6.298;2023-04-26T13:40:12;101258.96;;;20.94;26.87
61488;BME280;47351;53.326;-6.298;2023-04-26T13:43:02;101259.72;;;21.33;26.63
61488;BME280;47351;53.326;-6.298;2023-04-26T13:45:53;101262.52;;;22.52;25.32
61488;BME280;47351;53.326;-6.298;2023-04-26T13:48:43;101262.89;;;22.26;24.23
61488;BME280;47351;53.326;-6.298;2023-04-26T13:51:33;101268.44;;;22.06;24.28
61488;BME280;47351;53.326;-6.298;2023-04-26T13:54:23;101266.80;;;22.81;23.53
61488;BME280;47351;53.326;-6.298;2023-04-26T13:57:14;101262.91;;;23.58;23.11
61488;BME280;47351;53.326;-6.298;2023-04-26T14:00:05;101259.27;;;23.97;22.14
61488;BME280;47351;53.326;-6.298;2023-04-26T14:02:59;101261.86;;;24.01;22.32
61488;BME280;47351;53.326;-6.298;2023-04-26T14:05:49;101259.98;;;23.60;22.12
61488;BME280;47351;53.326;-6.298;2023-04-26T14:08:39;101263.48;;;23.20;22.61
61488;BME280;47351;53.326;-6.298;2023-04-26T14:11:30;101267.70;;;22.93;22.88
61488;BME280;47351;53.326;-6.298;2023-04-26T14:14:20;101262.71;;;22.75;22.72
61488;BME280;47351;53.326;-6.298;2023-04-26T14:17:10;101258.80;;;22.44;22.84
61488;BME280;47351;53.326;-6.298;2023-04-26T14:20:00;101259.84;;;22.19;22.92
61488;BME280;47351;53.326;-6.298;2023-04-26T14:22:51;101261.98;;;22.11;23.96
61488;BME280;47351;53.326;-6.298;2023-04-26T14:25:45;101264.81;;;22.18;24.15
61488;BME280;47351;53.326;-6.298;2023-04-26T14:28:35;101265.17;;;22.06;24.07
61488;BME280;47351;53.326;-6.298;2023-04-26T14:31:25;101262.44;;;21.71;24.07
61488;BME280;47351;53.326;-6.298;2023-04-26T14:34:18;101265.58;;;21.35;24.50
61488;BME280;47351;53.326;-6.298;2023-04-26T14:37:09;101259.96;;;20.95;24.62
61488;BME280;47351;53.326;-6.298;2023-04-26T14:40:00;101264.28;;;20.73;24.98
61488;BME280;47351;53.326;-6.298;2023-04-26T14:42:50;101259.51;;;20.44;25.30
61488;BME280;47351;53.326;-6.298;2023-04-26T14:45:42;101260.27;;;20.20;26.02
61488;BME280;47351;53.326;-6.298;2023-04-26T14:48:32;101258.83;;;20.06;26.23
61488;BME280;47351;53.326;-6.298;2023-04-26T14:51:22;101256.98;;;20.04;26.36
61488;BME280;47351;53.326;-6.298;2023-04-26T14:54:14;101264.17;;;19.99;25.83
61488;BME280;47351;53.326;-6.298;2023-04-26T14:57:04;101265.84;;;19.68;25.62
61488;BME280;47351;53.326;-6.298;2023-04-26T14:59:54;101270.27;;;19.38;26.66
61488;BME280;47351;53.326;-6.298;2023-04-26T15:02:45;101266.96;;;19.37;27.32
61488;BME280;47351;53.326;-6.298;2023-04-26T15:05:35;101269.61;;;19.39;27.51
61488;BME280;47351;53.326;-6.298;2023-04-26T15:08:26;101268.17;;;19.25;27.25
61488;BME280;47351;53.326;-6.298;2023-04-26T15:11:16;101270.69;;;19.11;27.74
61488;BME280;47351;53.326;-6.298;2023-04-26T15:14:06;101274.67;;;18.92;27.89
61488;BME280;47351;53.326;-6.298;2023-04-26T15:16:56;101270.90;;;18.74;28.02
61488;BME280;47351;53.326;-6.298;2023-04-26T15:19:47;101272.00;;;18.49;27.72
61488;BME280;47351;53.326;-6.298;2023-04-26T15:22:37;101266.23;;;18.18;27.40
61488;BME280;47351;53.326;-6.298;2023-04-26T15:25:27;101266.02;;;18.04;27.90
61488;BME280;47351;53.326;-6.298;2023-04-26T15:28:17;101264.10;;;17.91;27.98